Ransom Canyon, Texas
Current Conditions -  °F | °C
As of 3:41 AM on Friday 24 Oct 2014 (Local Time) from KLBB Reporting Station
Haze Haze  
Wind Chill: 56°   Ceiling: Unl
Heat Index: 56°   Visibility: 1.7mi
Dew Point: 55°   Wind: 6mph
Humidity: 97%   Direction: 250°WSW
Pressure: 30.14"   Gusts: NA
Location:  33.53°N, 101.68°W
Report Text: KLBB 240841Z 25005KT 1 3/4SM BR FEW000 13/13 A3014 RMK AO2 PTCHY MIFG T01330128
Loading
Personal Weather Stations






























Interactive Weather Map New forecast layout! Learn more

10-Day Weather Forecast

Advertisements
Track Severe Weather on mobile